sensor_id;sensor_type;location;lat;lon;timestamp;temperature;humidity
27376;DHT22;14844;51.302;6.354;2023-03-31T00:00:50;10.60;99.90
27376;DHT22;14844;51.302;6.354;2023-03-31T00:03:16;10.70;99.90
27376;DHT22;14844;51.302;6.354;2023-03-31T00:05:46;10.80;99.90
27376;DHT22;14844;51.302;6.354;2023-03-31T00:08:12;10.80;99.90
27376;DHT22;14844;51.302;6.354;2023-03-31T00:10:42;10.80;99.90
27376;DHT22;14844;51.302;6.354;2023-03-31T00:13:10;10.80;99.90
27376;DHT22;14844;51.302;6.354;2023-03-31T00:15:35;10.80;99.90
27376;DHT22;14844;51.302;6.354;2023-03-31T00:18:01;10.90;99.90
27376;DHT22;14844;51.302;6.354;2023-03-31T00:20:27;10.90;99.90
27376;DHT22;14844;51.302;6.354;2023-03-31T00:22:52;10.80;99.90
27376;DHT22;14844;51.302;6.354;2023-03-31T00:25:18;10.80;99.90
27376;DHT22;14844;51.302;6.354;2023-03-31T00:27:44;10.70;99.90
27376;DHT22;14844;51.302;6.354;2023-03-31T00:30:11;10.50;99.90
27376;DHT22;14844;51.302;6.354;2023-03-31T00:32:41;10.50;99.90
27376;DHT22;14844;51.302;6.354;2023-03-31T00:35:06;10.40;99.90
27376;DHT22;14844;51.302;6.354;2023-03-31T00:37:34;10.40;99.90
27376;DHT22;14844;51.302;6.354;2023-03-31T00:39:59;10.40;99.90
27376;DHT22;14844;51.302;6.354;2023-03-31T00:42:25;10.30;99.90
27376;DHT22;14844;51.302;6.354;2023-03-31T00:47:35;10.30;99.90
27376;DHT22;14844;51.302;6.354;2023-03-31T00:50:00;10.30;99.90
27376;DHT22;14844;51.302;6.354;2023-03-31T00:52:27;10.20;99.90
27376;DHT22;14844;51.302;6.354;2023-03-31T00:54:55;10.30;99.90
27376;DHT22;14844;51.302;6.354;2023-03-31T00:57:23;10.20;99.90
27376;DHT22;14844;51.302;6.354;2023-03-31T00:59:50;10.30;99.90
27376;DHT22;14844;51.302;6.354;2023-03-31T01:02:17;10.30;99.90
27376;DHT22;14844;51.302;6.354;2023-03-31T01:04:51;10.30;99.90
27376;DHT22;14844;51.302;6.354;2023-03-31T01:07:21;10.20;99.90
27376;DHT22;14844;51.302;6.354;2023-03-31T01:09:48;10.20;99.90
27376;DHT22;14844;51.302;6.354;2023-03-31T01:12:36;10.20;99.90
27376;DHT22;14844;51.302;6.354;2023-03-31T01:15:02;10.20;99.90
27376;DHT22;14844;51.302;6.354;2023-03-31T01:17:28;10.20;99.90
27376;DHT22;14844;51.302;6.354;2023-03-31T01:25:34;10.10;99.90
27376;DHT22;14844;51.302;6.354;2023-03-31T01:33:48;10.00;99.90
27376;DHT22;14844;51.302;6.354;2023-03-31T01:41:43;10.20;99.90
27376;DHT22;14844;51.302;6.354;2023-03-31T01:46:45;10.20;99.90
27376;DHT22;14844;51.302;6.354;2023-03-31T01:49:31;10.20;99.90
27376;DHT22;14844;51.302;6.354;2023-03-31T01:54:29;10.30;99.90
27376;DHT22;14844;51.302;6.354;2023-03-31T01:57:00;10.30;99.90
27376;DHT22;14844;51.302;6.354;2023-03-31T01:59:32;10.40;99.90
27376;DHT22;14844;51.302;6.354;2023-03-31T02:02:05;10.40;99.90
27376;DHT22;14844;51.302;6.354;2023-03-31T02:04:33;10.50;99.90
27376;DHT22;14844;51.302;6.354;2023-03-31T02:07:18;10.50;99.90
27376;DHT22;14844;51.302;6.354;2023-03-31T02:09:46;10.50;99.90
27376;DHT22;14844;51.302;6.354;2023-03-31T02:12:13;10.50;99.90
27376;DHT22;14844;51.302;6.354;2023-03-31T02:14:42;10.60;99.90
27376;DHT22;14844;51.302;6.354;2023-03-31T02:17:14;10.60;99.90
27376;DHT22;14844;51.302;6.354;2023-03-31T02:19:42;10.60;99.90
27376;DHT22;14844;51.302;6.354;2023-03-31T02:22:09;10.60;99.90
27376;DHT22;14844;51.302;6.354;2023-03-31T02:24:36;10.70;99.90
27376;DHT22;14844;51.302;6.354;2023-03-31T02:27:05;10.60;99.90
27376;DHT22;14844;51.302;6.354;2023-03-31T02:29:31;10.60;99.90
27376;DHT22;14844;51.302;6.354;2023-03-31T02:31:59;10.60;99.90
27376;DHT22;14844;51.302;6.354;2023-03-31T02:34:26;10.60;99.90
27376;DHT22;14844;51.302;6.354;2023-03-31T02:36:52;10.60;99.90
27376;DHT22;14844;51.302;6.354;2023-03-31T02:39:18;10.60;99.90
27376;DHT22;14844;51.302;6.354;2023-03-31T02:41:45;10.60;99.90
27376;DHT22;14844;51.302;6.354;2023-03-31T02:44:10;10.70;99.90
27376;DHT22;14844;51.302;6.354;2023-03-31T02:46:36;10.70;99.90
27376;DHT22;14844;51.302;6.354;2023-03-31T02:49:03;10.60;99.90
27376;DHT22;14844;51.302;6.354;2023-03-31T02:51:53;10.60;99.90
27376;DHT22;14844;51.302;6.354;2023-03-31T02:57:29;10.60;99.90
27376;DHT22;14844;51.302;6.354;2023-03-31T03:02:42;10.60;99.90
27376;DHT22;14844;51.302;6.354;2023-03-31T03:05:20;10.60;99.90
27376;DHT22;14844;51.302;6.354;2023-03-31T03:07:49;10.60;99.90
27376;DHT22;14844;51.302;6.354;2023-03-31T03:10:27;10.60;99.90
27376;DHT22;14844;51.302;6.354;2023-03-31T03:15:25;10.60;99.90
27376;DHT22;14844;51.302;6.354;2023-03-31T03:17:52;10.60;99.90
27376;DHT22;14844;51.302;6.354;2023-03-31T03:20:22;10.60;99.90
27376;DHT22;14844;51.302;6.354;2023-03-31T03:22:47;10.60;99.90
27376;DHT22;14844;51.302;6.354;2023-03-31T03:25:13;10.60;99.90
27376;DHT22;14844;51.302;6.354;2023-03-31T03:27:39;10.60;99.90
27376;DHT22;14844;51.302;6.354;2023-03-31T03:30:06;10.60;99.90
27376;DHT22;14844;51.302;6.354;2023-03-31T03:32:32;10.60;99.90
27376;DHT22;14844;51.302;6.354;2023-03-31T03:35:02;10.60;99.90
27376;DHT22;14844;51.302;6.354;2023-03-31T03:37:28;10.60;99.90
27376;DHT22;14844;51.302;6.354;2023-03-31T03:39:54;10.60;99.90
27376;DHT22;14844;51.302;6.354;2023-03-31T03:42:20;10.60;99.90
27376;DHT22;14844;51.302;6.354;2023-03-31T03:44:45;10.60;99.90
27376;DHT22;14844;51.302;6.354;2023-03-31T03:47:11;10.60;99.90
27376;DHT22;14844;51.302;6.354;2023-03-31T03:49:36;10.60;99.90
27376;DHT22;14844;51.302;6.354;2023-03-31T03:52:02;10.60;99.90
27376;DHT22;14844;51.302;6.354;2023-03-31T03:54:27;10.60;99.90
27376;DHT22;14844;51.302;6.354;2023-03-31T03:56:53;10.50;99.90
27376;DHT22;14844;51.302;6.354;2023-03-31T03:59:18;10.60;99.90
27376;DHT22;14844;51.302;6.354;2023-03-31T04:01:44;10.60;99.90
27376;DHT22;14844;51.302;6.354;2023-03-31T04:04:09;10.60;99.90
27376;DHT22;14844;51.302;6.354;2023-03-31T04:06:35;10.60;99.90
27376;DHT22;14844;51.302;6.354;2023-03-31T04:09:00;10.60;99.90
27376;DHT22;14844;51.302;6.354;2023-03-31T04:11:26;10.60;99.90
27376;DHT22;14844;51.302;6.354;2023-03-31T04:13:52;10.60;99.90
27376;DHT22;14844;51.302;6.354;2023-03-31T04:16:17;10.50;99.90
27376;DHT22;14844;51.302;6.354;2023-03-31T04:18:43;10.50;99.90
27376;DHT22;14844;51.302;6.354;2023-03-31T04:21:09;10.50;99.90
27376;DHT22;14844;51.302;6.354;2023-03-31T04:23:37;10.50;99.90
27376;DHT22;14844;51.302;6.354;2023-03-31T04:26:10;10.50;99.90
27376;DHT22;14844;51.302;6.354;2023-03-31T04:28:36;10.60;99.90
27376;DHT22;14844;51.302;6.354;2023-03-31T04:31:02;10.50;99.90
27376;DHT22;14844;51.302;6.354;2023-03-31T04:33:28;10.50;99.90
27376;DHT22;14844;51.302;6.354;2023-03-31T04:35:53;10.50;99.90
27376;DHT22;14844;51.302;6.354;2023-03-31T04:38:19;10.50;99.90
27376;DHT22;14844;51.302;6.354;2023-03-31T04:40:49;10.50;99.90
27376;DHT22;14844;51.302;6.354;2023-03-31T04:43:15;10.50;99.90
27376;DHT22;14844;51.302;6.354;2023-03-31T04:45:41;10.40;99.90
27376;DHT22;14844;51.302;6.354;2023-03-31T04:48:06;10.40;99.90
27376;DHT22;14844;51.302;6.354;2023-03-31T04:50:32;10.40;99.90
27376;DHT22;14844;51.302;6.354;2023-03-31T04:52:58;10.40;99.90
27376;DHT22;14844;51.302;6.354;2023-03-31T04:55:23;10.30;99.90
27376;DHT22;14844;51.302;6.354;2023-03-31T04:57:49;10.30;99.90
27376;DHT22;14844;51.302;6.354;2023-03-31T05:00:16;10.30;99.90
27376;DHT22;14844;51.302;6.354;2023-03-31T05:02:41;10.30;99.90
27376;DHT22;14844;51.302;6.354;2023-03-31T05:05:07;10.20;99.90
27376;DHT22;14844;51.302;6.354;2023-03-31T05:07:32;10.20;99.90
27376;DHT22;14844;51.302;6.354;2023-03-31T05:09:58;10.20;99.90
27376;DHT22;14844;51.302;6.354;2023-03-31T05:12:23;10.30;99.90
27376;DHT22;14844;51.302;6.354;2023-03-31T05:14:50;10.30;99.90
27376;DHT22;14844;51.302;6.354;2023-03-31T05:17:15;10.40;99.90
27376;DHT22;14844;51.302;6.354;2023-03-31T05:19:42;10.50;99.90
27376;DHT22;14844;51.302;6.354;2023-03-31T05:22:07;10.50;99.90
27376;DHT22;14844;51.302;6.354;2023-03-31T05:24:33;10.60;99.90
27376;DHT22;14844;51.302;6.354;2023-03-31T05:26:58;10.70;99.90
27376;DHT22;14844;51.302;6.354;2023-03-31T05:29:24;10.70;99.90
27376;DHT22;14844;51.302;6.354;2023-03-31T05:31:49;10.70;99.90
27376;DHT22;14844;51.302;6.354;2023-03-31T05:34:15;10.70;99.90
27376;DHT22;14844;51.302;6.354;2023-03-31T05:36:40;10.70;99.90
27376;DHT22;14844;51.302;6.354;2023-03-31T05:39:07;10.70;99.90
27376;DHT22;14844;51.302;6.354;2023-03-31T05:41:33;10.60;99.90
27376;DHT22;14844;51.302;6.354;2023-03-31T05:43:58;10.70;99.90
27376;DHT22;14844;51.302;6.354;2023-03-31T05:46:24;10.70;99.90
27376;DHT22;14844;51.302;6.354;2023-03-31T05:48:51;10.70;99.90
27376;DHT22;14844;51.302;6.354;2023-03-31T05:51:16;10.70;99.90
27376;DHT22;14844;51.302;6.354;2023-03-31T05:53:42;10.80;99.90
27376;DHT22;14844;51.302;6.354;2023-03-31T05:56:08;10.70;99.90
27376;DHT22;14844;51.302;6.354;2023-03-31T05:58:34;10.80;99.90
27376;DHT22;14844;51.302;6.354;2023-03-31T06:01:01;10.80;99.90
27376;DHT22;14844;51.302;6.354;2023-03-31T06:03:27;10.70;99.90
27376;DHT22;14844;51.302;6.354;2023-03-31T06:05:52;10.70;99.90
27376;DHT22;14844;51.302;6.354;2023-03-31T06:08:19;10.60;99.90
27376;DHT22;14844;51.302;6.354;2023-03-31T06:10:45;10.60;99.90
27376;DHT22;14844;51.302;6.354;2023-03-31T06:13:10;10.60;99.90
27376;DHT22;14844;51.302;6.354;2023-03-31T06:15:36;10.60;99.90
27376;DHT22;14844;51.302;6.354;2023-03-31T06:18:02;10.50;99.90
27376;DHT22;14844;51.302;6.354;2023-03-31T06:20:27;10.50;99.90
27376;DHT22;14844;51.302;6.354;2023-03-31T06:22:53;10.40;99.90
27376;DHT22;14844;51.302;6.354;2023-03-31T06:25:18;10.40;99.90
27376;DHT22;14844;51.302;6.354;2023-03-31T06:27:44;10.40;99.90
27376;DHT22;14844;51.302;6.354;2023-03-31T06:30:09;10.30;99.90
27376;DHT22;14844;51.302;6.354;2023-03-31T06:32:35;10.40;99.90
27376;DHT22;14844;51.302;6.354;2023-03-31T06:35:03;10.40;99.90
27376;DHT22;14844;51.302;6.354;2023-03-31T06:37:28;10.40;99.90
27376;DHT22;14844;51.302;6.354;2023-03-31T06:39:54;10.50;99.90
27376;DHT22;14844;51.302;6.354;2023-03-31T06:42:19;10.50;99.90
27376;DHT22;14844;51.302;6.354;2023-03-31T06:44:45;10.50;99.90
27376;DHT22;14844;51.302;6.354;2023-03-31T06:47:10;10.60;99.90
27376;DHT22;14844;51.302;6.354;2023-03-31T06:49:36;10.50;99.90
27376;DHT22;14844;51.302;6.354;2023-03-31T06:52:01;10.50;99.90
27376;DHT22;14844;51.302;6.354;2023-03-31T06:54:28;10.50;99.90
27376;DHT22;14844;51.302;6.354;2023-03-31T06:56:53;10.50;99.90
27376;DHT22;14844;51.302;6.354;2023-03-31T06:59:19;10.50;99.90
27376;DHT22;14844;51.302;6.354;2023-03-31T07:01:44;10.50;99.90
27376;DHT22;14844;51.302;6.354;2023-03-31T07:04:12;10.50;99.90
27376;DHT22;14844;51.302;6.354;2023-03-31T07:06:38;10.40;99.90
27376;DHT22;14844;51.302;6.354;2023-03-31T07:09:03;10.40;99.90
27376;DHT22;14844;51.302;6.354;2023-03-31T07:11:29;10.40;99.90
27376;DHT22;14844;51.302;6.354;2023-03-31T07:13:54;10.40;99.90
27376;DHT22;14844;51.302;6.354;2023-03-31T07:16:20;10.40;99.90
27376;DHT22;14844;51.302;6.354;2023-03-31T07:18:45;10.40;99.90
27376;DHT22;14844;51.302;6.354;2023-03-31T07:21:11;10.40;99.90
27376;DHT22;14844;51.302;6.354;2023-03-31T07:23:36;10.30;99.90
27376;DHT22;14844;51.302;6.354;2023-03-31T07:26:02;10.40;99.90
27376;DHT22;14844;51.302;6.354;2023-03-31T07:28:28;10.40;99.90
27376;DHT22;14844;51.302;6.354;2023-03-31T07:30:53;10.40;99.90
27376;DHT22;14844;51.302;6.354;2023-03-31T07:33:19;10.50;99.90
27376;DHT22;14844;51.302;6.354;2023-03-31T07:35:44;10.50;99.90
27376;DHT22;14844;51.302;6.354;2023-03-31T07:38:10;10.60;99.90
27376;DHT22;14844;51.302;6.354;2023-03-31T07:40:36;10.70;99.90
27376;DHT22;14844;51.302;6.354;2023-03-31T07:43:02;10.70;99.90
27376;DHT22;14844;51.302;6.354;2023-03-31T07:45:28;10.90;99.90
27376;DHT22;14844;51.302;6.354;2023-03-31T07:47:53;11.00;99.90
27376;DHT22;14844;51.302;6.354;2023-03-31T07:50:19;11.20;99.90
27376;DHT22;14844;51.302;6.354;2023-03-31T07:52:45;11.20;99.90
27376;DHT22;14844;51.302;6.354;2023-03-31T07:55:11;11.30;99.90
27376;DHT22;14844;51.302;6.354;2023-03-31T07:57:37;11.50;99.90
27376;DHT22;14844;51.302;6.354;2023-03-31T08:00:04;11.70;99.90
27376;DHT22;14844;51.302;6.354;2023-03-31T08:02:32;11.90;99.90
27376;DHT22;14844;51.302;6.354;2023-03-31T08:04:58;12.10;99.90
27376;DHT22;14844;51.302;6.354;2023-03-31T08:07:24;12.20;99.90
27376;DHT22;14844;51.302;6.354;2023-03-31T08:09:50;12.40;99.90
27376;DHT22;14844;51.302;6.354;2023-03-31T08:12:16;12.50;99.90
27376;DHT22;14844;51.302;6.354;2023-03-31T08:14:41;12.60;99.90
27376;DHT22;14844;51.302;6.354;2023-03-31T08:17:08;12.90;99.90
27376;DHT22;14844;51.302;6.354;2023-03-31T08:19:33;13.10;99.90
27376;DHT22;14844;51.302;6.354;2023-03-31T08:21:59;13.20;99.90
27376;DHT22;14844;51.302;6.354;2023-03-31T08:24:24;13.30;99.90
27376;DHT22;14844;51.302;6.354;2023-03-31T08:26:50;13.10;99.90
27376;DHT22;14844;51.302;6.354;2023-03-31T08:29:15;13.10;99.90
27376;DHT22;14844;51.302;6.354;2023-03-31T08:31:40;13.00;99.90
27376;DHT22;14844;51.302;6.354;2023-03-31T08:34:06;13.00;99.90
27376;DHT22;14844;51.302;6.354;2023-03-31T08:36:32;12.80;99.90
27376;DHT22;14844;51.302;6.354;2023-03-31T08:38:57;12.70;99.90
27376;DHT22;14844;51.302;6.354;2023-03-31T08:41:29;12.70;99.90
27376;DHT22;14844;51.302;6.354;2023-03-31T08:43:57;12.70;99.90
27376;DHT22;14844;51.302;6.354;2023-03-31T08:46:23;12.60;99.90
27376;DHT22;14844;51.302;6.354;2023-03-31T08:48:53;12.70;99.90
27376;DHT22;14844;51.302;6.354;2023-03-31T08:51:21;12.70;99.90
27376;DHT22;14844;51.302;6.354;2023-03-31T08:53:49;12.80;99.90
27376;DHT22;14844;51.302;6.354;2023-03-31T08:56:18;12.80;99.90
27376;DHT22;14844;51.302;6.354;2023-03-31T08:58:45;12.90;99.90
27376;DHT22;14844;51.302;6.354;2023-03-31T09:06:21;13.20;99.90
27376;DHT22;14844;51.302;6.354;2023-03-31T09:08:48;13.30;99.90
27376;DHT22;14844;51.302;6.354;2023-03-31T09:18:53;13.60;99.90
27376;DHT22;14844;51.302;6.354;2023-03-31T09:21:27;13.70;99.90
27376;DHT22;14844;51.302;6.354;2023-03-31T09:26:26;14.00;99.90
27376;DHT22;14844;51.302;6.354;2023-03-31T09:28:54;14.40;99.90
27376;DHT22;14844;51.302;6.354;2023-03-31T09:31:21;14.50;99.90
27376;DHT22;14844;51.302;6.354;2023-03-31T09:33:47;14.60;99.90
27376;DHT22;14844;51.302;6.354;2023-03-31T09:36:16;14.60;99.90
27376;DHT22;14844;51.302;6.354;2023-03-31T09:38:43;14.40;99.90
27376;DHT22;14844;51.302;6.354;2023-03-31T09:41:08;14.20;99.90
27376;DHT22;14844;51.302;6.354;2023-03-31T09:43:36;14.00;99.90
27376;DHT22;14844;51.302;6.354;2023-03-31T09:46:03;14.00;99.90
27376;DHT22;14844;51.302;6.354;2023-03-31T09:48:31;14.00;99.90
27376;DHT22;14844;51.302;6.354;2023-03-31T09:51:02;14.10;99.90
27376;DHT22;14844;51.302;6.354;2023-03-31T09:55:55;14.30;99.90
27376;DHT22;14844;51.302;6.354;2023-03-31T09:58:25;14.40;99.90
27376;DHT22;14844;51.302;6.354;2023-03-31T10:01:03;14.40;99.90
27376;DHT22;14844;51.302;6.354;2023-03-31T10:03:30;14.50;99.90
27376;DHT22;14844;51.302;6.354;2023-03-31T10:06:01;14.60;99.90
27376;DHT22;14844;51.302;6.354;2023-03-31T10:08:30;14.60;99.90
27376;DHT22;14844;51.302;6.354;2023-03-31T10:13:29;15.20;99.90
27376;DHT22;14844;51.302;6.354;2023-03-31T10:16:03;15.40;99.90
27376;DHT22;14844;51.302;6.354;2023-03-31T10:18:34;15.40;99.90
27376;DHT22;14844;51.302;6.354;2023-03-31T10:21:00;15.30;99.90
27376;DHT22;14844;51.302;6.354;2023-03-31T10:23:27;15.30;99.90
27376;DHT22;14844;51.302;6.354;2023-03-31T10:25:54;14.10;99.90
27376;DHT22;14844;51.302;6.354;2023-03-31T10:28:20;12.80;99.90
27376;DHT22;14844;51.302;6.354;2023-03-31T10:30:53;12.20;99.90
27376;DHT22;14844;51.302;6.354;2023-03-31T10:33:24;12.10;99.90
27376;DHT22;14844;51.302;6.354;2023-03-31T10:35:57;11.90;99.90
27376;DHT22;14844;51.302;6.354;2023-03-31T10:38:36;11.70;99.90
27376;DHT22;14844;51.302;6.354;2023-03-31T10:41:04;11.70;99.90
27376;DHT22;14844;51.302;6.354;2023-03-31T10:43:36;11.80;99.90
27376;DHT22;14844;51.302;6.354;2023-03-31T10:46:02;11.90;99.90
27376;DHT22;14844;51.302;6.354;2023-03-31T10:48:32;11.90;99.90
27376;DHT22;14844;51.302;6.354;2023-03-31T10:51:20;11.90;99.90
27376;DHT22;14844;51.302;6.354;2023-03-31T10:53:48;12.00;99.90
27376;DHT22;14844;51.302;6.354;2023-03-31T10:59:13;12.20;99.90
27376;DHT22;14844;51.302;6.354;2023-03-31T11:04:46;12.80;99.90
27376;DHT22;14844;51.302;6.354;2023-03-31T11:09:55;13.30;99.90
27376;DHT22;14844;51.302;6.354;2023-03-31T11:12:25;13.70;99.90
27376;DHT22;14844;51.302;6.354;2023-03-31T11:19:46;14.10;99.90
27376;DHT22;14844;51.302;6.354;2023-03-31T11:22:28;14.40;99.90
27376;DHT22;14844;51.302;6.354;2023-03-31T11:25:01;14.70;99.90
27376;DHT22;14844;51.302;6.354;2023-03-31T11:30:03;14.80;99.90
27376;DHT22;14844;51.302;6.354;2023-03-31T11:35:06;14.90;99.90
27376;DHT22;14844;51.302;6.354;2023-03-31T11:37:40;15.30;99.90
27376;DHT22;14844;51.302;6.354;2023-03-31T11:40:15;15.00;99.90
27376;DHT22;14844;51.302;6.354;2023-03-31T11:42:49;15.00;99.90
27376;DHT22;14844;51.302;6.354;2023-03-31T11:47:41;14.70;99.90
27376;DHT22;14844;51.302;6.354;2023-03-31T11:50:11;14.80;99.90
27376;DHT22;14844;51.302;6.354;2023-03-31T11:52:42;14.80;99.90
27376;DHT22;14844;51.302;6.354;2023-03-31T11:55:15;14.90;99.90
27376;DHT22;14844;51.302;6.354;2023-03-31T11:57:44;15.10;99.90
27376;DHT22;14844;51.302;6.354;2023-03-31T12:00:57;15.20;99.90
27376;DHT22;14844;51.302;6.354;2023-03-31T12:05:40;15.10;99.90
27376;DHT22;14844;51.302;6.354;2023-03-31T12:08:10;15.10;99.90
27376;DHT22;14844;51.302;6.354;2023-03-31T12:10:37;15.20;99.90
27376;DHT22;14844;51.302;6.354;2023-03-31T12:15:41;15.30;99.90
27376;DHT22;14844;51.302;6.354;2023-03-31T12:18:10;15.30;99.90
27376;DHT22;14844;51.302;6.354;2023-03-31T12:20:38;15.30;99.90
27376;DHT22;14844;51.302;6.354;2023-03-31T12:23:09;15.90;99.90
27376;DHT22;14844;51.302;6.354;2023-03-31T12:28:14;15.80;99.90
27376;DHT22;14844;51.302;6.354;2023-03-31T12:30:40;15.80;99.90
27376;DHT22;14844;51.302;6.354;2023-03-31T12:35:55;16.60;99.90
27376;DHT22;14844;51.302;6.354;2023-03-31T12:38:32;16.50;99.90
27376;DHT22;14844;51.302;6.354;2023-03-31T12:53:58;16.10;99.90
27376;DHT22;14844;51.302;6.354;2023-03-31T12:56:31;16.30;99.90
27376;DHT22;14844;51.302;6.354;2023-03-31T12:59:16;16.30;99.90
27376;DHT22;14844;51.302;6.354;2023-03-31T13:02:43;16.50;99.90
27376;DHT22;14844;51.302;6.354;2023-03-31T13:04:37;16.40;99.90
27376;DHT22;14844;51.302;6.354;2023-03-31T13:07:04;16.40;99.90
27376;DHT22;14844;51.302;6.354;2023-03-31T13:11:55;16.50;99.90
27376;DHT22;14844;51.302;6.354;2023-03-31T13:14:22;16.20;99.90
27376;DHT22;14844;51.302;6.354;2023-03-31T13:16:48;16.00;99.90
27376;DHT22;14844;51.302;6.354;2023-03-31T13:19:30;15.80;99.90
27376;DHT22;14844;51.302;6.354;2023-03-31T13:21:57;15.80;99.90
27376;DHT22;14844;51.302;6.354;2023-03-31T13:24:26;16.00;99.90
27376;DHT22;14844;51.302;6.354;2023-03-31T13:26:53;15.90;99.90
27376;DHT22;14844;51.302;6.354;2023-03-31T13:29:22;15.70;99.90
27376;DHT22;14844;51.302;6.354;2023-03-31T13:34:30;15.30;99.90
27376;DHT22;14844;51.302;6.354;2023-03-31T13:37:05;15.70;99.90
27376;DHT22;14844;51.302;6.354;2023-03-31T13:42:22;15.80;99.90
27376;DHT22;14844;51.302;6.354;2023-03-31T13:44:54;15.80;99.90
27376;DHT22;14844;51.302;6.354;2023-03-31T14:00:34;15.70;99.90
27376;DHT22;14844;51.302;6.354;2023-03-31T14:08:48;14.80;99.90
27376;DHT22;14844;51.302;6.354;2023-03-31T14:13:40;13.70;99.90
27376;DHT22;14844;51.302;6.354;2023-03-31T14:16:06;13.50;99.90
27376;DHT22;14844;51.302;6.354;2023-03-31T14:18:33;13.40;99.90
27376;DHT22;14844;51.302;6.354;2023-03-31T14:21:20;13.10;99.90
27376;DHT22;14844;51.302;6.354;2023-03-31T14:26:16;12.20;99.90
27376;DHT22;14844;51.302;6.354;2023-03-31T14:28:53;12.00;99.90
27376;DHT22;14844;51.302;6.354;2023-03-31T14:31:33;12.00;99.90
27376;DHT22;14844;51.302;6.354;2023-03-31T14:39:16;12.40;99.90
27376;DHT22;14844;51.302;6.354;2023-03-31T14:41:49;12.70;99.90
27376;DHT22;14844;51.302;6.354;2023-03-31T14:44:15;13.00;99.90
27376;DHT22;14844;51.302;6.354;2023-03-31T14:46:42;13.10;99.90
27376;DHT22;14844;51.302;6.354;2023-03-31T14:49:41;13.00;99.90
27376;DHT22;14844;51.302;6.354;2023-03-31T14:52:00;13.10;99.90
27376;DHT22;14844;51.302;6.354;2023-03-31T14:54:33;13.20;99.90
27376;DHT22;14844;51.302;6.354;2023-03-31T14:56:58;13.10;99.90
27376;DHT22;14844;51.302;6.354;2023-03-31T14:59:28;13.00;99.90
27376;DHT22;14844;51.302;6.354;2023-03-31T15:01:55;13.10;99.90
27376;DHT22;14844;51.302;6.354;2023-03-31T15:04:22;13.30;99.90
27376;DHT22;14844;51.302;6.354;2023-03-31T15:06:49;13.40;99.90
27376;DHT22;14844;51.302;6.354;2023-03-31T15:09:36;13.30;99.90
27376;DHT22;14844;51.302;6.354;2023-03-31T15:12:02;13.50;99.90
27376;DHT22;14844;51.302;6.354;2023-03-31T15:14:29;13.60;99.90
27376;DHT22;14844;51.302;6.354;2023-03-31T15:16:54;13.80;99.90
27376;DHT22;14844;51.302;6.354;2023-03-31T15:19:24;13.90;99.90
27376;DHT22;14844;51.302;6.354;2023-03-31T15:21:58;13.90;99.90
27376;DHT22;14844;51.302;6.354;2023-03-31T15:24:28;13.80;99.90
27376;DHT22;14844;51.302;6.354;2023-03-31T15:26:56;13.80;99.90
27376;DHT22;14844;51.302;6.354;2023-03-31T15:29:24;13.80;99.90
27376;DHT22;14844;51.302;6.354;2023-03-31T15:31:51;13.80;99.90
27376;DHT22;14844;51.302;6.354;2023-03-31T15:34:29;13.80;99.90
27376;DHT22;14844;51.302;6.354;2023-03-31T15:36:55;13.70;99.90
27376;DHT22;14844;51.302;6.354;2023-03-31T15:39:22;13.60;99.90
27376;DHT22;14844;51.302;6.354;2023-03-31T15:41:47;13.60;99.90
27376;DHT22;14844;51.302;6.354;2023-03-31T15:44:34;13.40;99.90
27376;DHT22;14844;51.302;6.354;2023-03-31T15:47:21;13.30;99.90
27376;DHT22;14844;51.302;6.354;2023-03-31T15:52:35;13.00;99.90
27376;DHT22;14844;51.302;6.354;2023-03-31T15:55:23;12.80;99.90
27376;DHT22;14844;51.302;6.354;2023-03-31T15:57:48;12.70;99.90
27376;DHT22;14844;51.302;6.354;2023-03-31T16:00:39;12.70;99.90
27376;DHT22;14844;51.302;6.354;2023-03-31T16:03:04;12.70;99.90
27376;DHT22;14844;51.302;6.354;2023-03-31T16:05:38;12.60;99.90
27376;DHT22;14844;51.302;6.354;2023-03-31T16:08:08;12.60;99.90
27376;DHT22;14844;51.302;6.354;2023-03-31T16:10:35;12.50;99.90
27376;DHT22;14844;51.302;6.354;2023-03-31T16:13:04;12.40;99.90
27376;DHT22;14844;51.302;6.354;2023-03-31T16:15:35;12.40;99.90
27376;DHT22;14844;51.302;6.354;2023-03-31T16:18:04;12.40;99.90
27376;DHT22;14844;51.302;6.354;2023-03-31T16:20:31;12.50;99.90
27376;DHT22;14844;51.302;6.354;2023-03-31T16:22:57;12.40;99.90
27376;DHT22;14844;51.302;6.354;2023-03-31T16:25:25;12.40;99.90
27376;DHT22;14844;51.302;6.354;2023-03-31T16:27:55;12.30;99.90
27376;DHT22;14844;51.302;6.354;2023-03-31T16:30:31;12.30;99.90
27376;DHT22;14844;51.302;6.354;2023-03-31T16:33:01;12.30;99.90
27376;DHT22;14844;51.302;6.354;2023-03-31T16:35:31;12.20;99.90
27376;DHT22;14844;51.302;6.354;2023-03-31T16:37:57;12.20;99.90
27376;DHT22;14844;51.302;6.354;2023-03-31T16:40:22;12.00;99.90
27376;DHT22;14844;51.302;6.354;2023-03-31T16:42:48;11.90;99.90
27376;DHT22;14844;51.302;6.354;2023-03-31T16:45:13;11.90;99.90
27376;DHT22;14844;51.302;6.354;2023-03-31T16:47:39;11.80;99.90
27376;DHT22;14844;51.302;6.354;2023-03-31T16:50:05;11.70;99.90
27376;DHT22;14844;51.302;6.354;2023-03-31T16:52:31;11.60;99.90
27376;DHT22;14844;51.302;6.354;2023-03-31T16:54:56;11.50;99.90
27376;DHT22;14844;51.302;6.354;2023-03-31T16:57:22;11.40;99.90
27376;DHT22;14844;51.302;6.354;2023-03-31T16:59:47;11.30;99.90
27376;DHT22;14844;51.302;6.354;2023-03-31T17:02:13;11.20;99.90
27376;DHT22;14844;51.302;6.354;2023-03-31T17:04:39;11.10;99.90
27376;DHT22;14844;51.302;6.354;2023-03-31T17:07:04;11.00;99.90
27376;DHT22;14844;51.302;6.354;2023-03-31T17:09:30;10.90;99.90
27376;DHT22;14844;51.302;6.354;2023-03-31T17:11:55;10.90;99.90
27376;DHT22;14844;51.302;6.354;2023-03-31T17:14:21;10.90;99.90
27376;DHT22;14844;51.302;6.354;2023-03-31T17:16:47;10.90;99.90
27376;DHT22;14844;51.302;6.354;2023-03-31T17:19:14;10.90;99.90
27376;DHT22;14844;51.302;6.354;2023-03-31T17:21:39;10.90;99.90
27376;DHT22;14844;51.302;6.354;2023-03-31T17:24:05;10.90;99.90
27376;DHT22;14844;51.302;6.354;2023-03-31T17:26:31;10.90;99.90
27376;DHT22;14844;51.302;6.354;2023-03-31T17:28:57;10.90;99.90
27376;DHT22;14844;51.302;6.354;2023-03-31T17:31:24;10.90;99.90
27376;DHT22;14844;51.302;6.354;2023-03-31T17:33:50;10.90;99.90
27376;DHT22;14844;51.302;6.354;2023-03-31T17:36:15;10.90;99.90
27376;DHT22;14844;51.302;6.354;2023-03-31T17:38:41;10.90;99.90
27376;DHT22;14844;51.302;6.354;2023-03-31T17:41:08;10.90;99.90
27376;DHT22;14844;51.302;6.354;2023-03-31T17:43:34;10.90;99.90
27376;DHT22;14844;51.302;6.354;2023-03-31T17:46:00;10.80;99.90
27376;DHT22;14844;51.302;6.354;2023-03-31T17:48:26;10.80;99.90
27376;DHT22;14844;51.302;6.354;2023-03-31T17:50:52;10.70;99.90
27376;DHT22;14844;51.302;6.354;2023-03-31T17:53:17;10.70;99.90